sensor_id;sensor_type;location;lat;lon;timestamp;P1;durP1;ratioP1;P2;durP2;ratioP2
65715;SDS011;63484;52.054;8.518;2023-04-06T00:01:27;14.53;;;6.63;;
65715;SDS011;63484;52.054;8.518;2023-04-06T00:06:31;13.80;;;6.93;;
65715;SDS011;63484;52.054;8.518;2023-04-06T00:11:33;16.65;;;7.40;;
65715;SDS011;63484;52.054;8.518;2023-04-06T00:16:37;16.70;;;7.10;;
65715;SDS011;63484;52.054;8.518;2023-04-06T00:21:40;15.63;;;7.33;;
65715;SDS011;63484;52.054;8.518;2023-04-06T00:26:42;17.85;;;7.05;;
65715;SDS011;63484;52.054;8.518;2023-04-06T00:31:44;15.77;;;7.13;;
65715;SDS011;63484;52.054;8.518;2023-04-06T00:36:47;14.63;;;6.70;;
65715;SDS011;63484;52.054;8.518;2023-04-06T00:41:51;13.47;;;6.13;;
65715;SDS011;63484;52.054;8.518;2023-04-06T00:46:56;15.17;;;6.30;;
65715;SDS011;63484;52.054;8.518;2023-04-06T00:51:59;16.50;;;6.73;;
65715;SDS011;63484;52.054;8.518;2023-04-06T00:57:01;13.13;;;6.68;;
65715;SDS011;63484;52.054;8.518;2023-04-06T01:02:04;12.53;;;6.70;;
65715;SDS011;63484;52.054;8.518;2023-04-06T01:07:14;16.13;;;6.40;;
65715;SDS011;63484;52.054;8.518;2023-04-06T01:12:24;12.00;;;6.33;;
65715;SDS011;63484;52.054;8.518;2023-04-06T01:17:26;12.07;;;6.33;;
65715;SDS011;63484;52.054;8.518;2023-04-06T01:22:30;16.90;;;6.60;;
65715;SDS011;63484;52.054;8.518;2023-04-06T01:27:35;16.80;;;6.80;;
65715;SDS011;63484;52.054;8.518;2023-04-06T01:32:52;14.30;;;6.60;;
65715;SDS011;63484;52.054;8.518;2023-04-06T01:43:10;15.23;;;6.77;;
65715;SDS011;63484;52.054;8.518;2023-04-06T01:48:38;13.63;;;6.30;;
65715;SDS011;63484;52.054;8.518;2023-04-06T01:54:07;14.73;;;6.70;;
65715;SDS011;63484;52.054;8.518;2023-04-06T01:59:30;15.30;;;6.95;;
65715;SDS011;63484;52.054;8.518;2023-04-06T02:04:34;15.50;;;6.70;;
65715;SDS011;63484;52.054;8.518;2023-04-06T02:09:46;14.17;;;7.17;;
65715;SDS011;63484;52.054;8.518;2023-04-06T02:14:56;14.20;;;6.60;;
65715;SDS011;63484;52.054;8.518;2023-04-06T02:19:58;10.80;;;5.80;;
65715;SDS011;63484;52.054;8.518;2023-04-06T02:25:02;19.20;;;6.87;;
65715;SDS011;63484;52.054;8.518;2023-04-06T02:30:13;13.20;;;6.73;;
65715;SDS011;63484;52.054;8.518;2023-04-06T02:35:15;13.20;;;6.60;;
65715;SDS011;63484;52.054;8.518;2023-04-06T02:40:19;13.33;;;6.63;;
65715;SDS011;63484;52.054;8.518;2023-04-06T02:45:21;13.38;;;6.50;;
65715;SDS011;63484;52.054;8.518;2023-04-06T02:50:23;16.57;;;6.63;;
65715;SDS011;63484;52.054;8.518;2023-04-06T02:55:33;16.33;;;6.97;;
65715;SDS011;63484;52.054;8.518;2023-04-06T03:00:35;15.40;;;6.97;;
65715;SDS011;63484;52.054;8.518;2023-04-06T03:05:38;13.20;;;6.33;;
65715;SDS011;63484;52.054;8.518;2023-04-06T03:10:42;13.17;;;6.13;;
65715;SDS011;63484;52.054;8.518;2023-04-06T03:15:44;12.77;;;5.88;;
65715;SDS011;63484;52.054;8.518;2023-04-06T03:20:49;15.57;;;6.87;;
65715;SDS011;63484;52.054;8.518;2023-04-06T03:25:55;13.57;;;6.57;;
65715;SDS011;63484;52.054;8.518;2023-04-06T03:30:57;11.77;;;6.78;;
65715;SDS011;63484;52.054;8.518;2023-04-06T03:36:19;12.10;;;6.57;;
65715;SDS011;63484;52.054;8.518;2023-04-06T03:41:23;15.97;;;6.10;;
65715;SDS011;63484;52.054;8.518;2023-04-06T03:46:34;11.50;;;6.27;;
65715;SDS011;63484;52.054;8.518;2023-04-06T03:51:36;12.37;;;6.87;;
65715;SDS011;63484;52.054;8.518;2023-04-06T03:56:39;18.00;;;6.50;;
65715;SDS011;63484;52.054;8.518;2023-04-06T04:01:41;16.35;;;7.38;;
65715;SDS011;63484;52.054;8.518;2023-04-06T04:06:43;17.47;;;6.77;;
65715;SDS011;63484;52.054;8.518;2023-04-06T04:11:46;15.13;;;6.70;;
65715;SDS011;63484;52.054;8.518;2023-04-06T04:16:48;13.07;;;6.55;;
65715;SDS011;63484;52.054;8.518;2023-04-06T04:21:52;13.65;;;7.05;;
65715;SDS011;63484;52.054;8.518;2023-04-06T04:27:03;12.70;;;6.33;;
65715;SDS011;63484;52.054;8.518;2023-04-06T04:32:06;14.00;;;6.93;;
65715;SDS011;63484;52.054;8.518;2023-04-06T04:37:08;12.70;;;6.53;;
65715;SDS011;63484;52.054;8.518;2023-04-06T04:42:22;14.07;;;6.27;;
65715;SDS011;63484;52.054;8.518;2023-04-06T04:47:28;15.97;;;6.57;;
65715;SDS011;63484;52.054;8.518;2023-04-06T04:52:31;13.18;;;6.80;;
65715;SDS011;63484;52.054;8.518;2023-04-06T04:57:55;14.23;;;6.70;;
65715;SDS011;63484;52.054;8.518;2023-04-06T05:03:05;15.60;;;6.77;;
65715;SDS011;63484;52.054;8.518;2023-04-06T05:08:11;13.30;;;6.50;;
65715;SDS011;63484;52.054;8.518;2023-04-06T05:13:21;16.30;;;7.40;;
65715;SDS011;63484;52.054;8.518;2023-04-06T05:18:24;13.87;;;6.93;;
65715;SDS011;63484;52.054;8.518;2023-04-06T05:23:27;11.75;;;6.22;;
65715;SDS011;63484;52.054;8.518;2023-04-06T05:28:32;15.93;;;6.95;;
65715;SDS011;63484;52.054;8.518;2023-04-06T05:33:36;14.87;;;7.10;;
65715;SDS011;63484;52.054;8.518;2023-04-06T05:38:44;12.80;;;7.20;;
65715;SDS011;63484;52.054;8.518;2023-04-06T05:43:57;12.07;;;6.43;;
65715;SDS011;63484;52.054;8.518;2023-04-06T05:49:02;14.77;;;7.38;;
65715;SDS011;63484;52.054;8.518;2023-04-06T05:54:07;16.27;;;7.25;;
65715;SDS011;63484;52.054;8.518;2023-04-06T05:59:10;12.88;;;7.38;;
65715;SDS011;63484;52.054;8.518;2023-04-06T06:04:12;13.48;;;7.47;;
65715;SDS011;63484;52.054;8.518;2023-04-06T06:09:15;15.25;;;6.95;;
65715;SDS011;63484;52.054;8.518;2023-04-06T06:14:27;15.73;;;7.25;;
65715;SDS011;63484;52.054;8.518;2023-04-06T06:19:29;13.68;;;7.03;;
65715;SDS011;63484;52.054;8.518;2023-04-06T06:24:35;14.57;;;7.35;;
65715;SDS011;63484;52.054;8.518;2023-04-06T06:29:39;11.73;;;7.03;;
65715;SDS011;63484;52.054;8.518;2023-04-06T06:34:40;12.45;;;7.38;;
65715;SDS011;63484;52.054;8.518;2023-04-06T06:39:44;10.03;;;6.77;;
65715;SDS011;63484;52.054;8.518;2023-04-06T06:44:47;13.25;;;7.13;;
65715;SDS011;63484;52.054;8.518;2023-04-06T06:49:49;9.65;;;6.68;;
65715;SDS011;63484;52.054;8.518;2023-04-06T06:54:51;10.93;;;6.90;;
65715;SDS011;63484;52.054;8.518;2023-04-06T06:59:55;12.63;;;7.05;;
65715;SDS011;63484;52.054;8.518;2023-04-06T07:04:59;12.77;;;7.28;;
65715;SDS011;63484;52.054;8.518;2023-04-06T07:15:07;10.95;;;6.72;;
65715;SDS011;63484;52.054;8.518;2023-04-06T07:20:11;10.55;;;6.75;;
65715;SDS011;63484;52.054;8.518;2023-04-06T07:25:14;10.83;;;6.33;;
65715;SDS011;63484;52.054;8.518;2023-04-06T07:30:17;10.02;;;6.47;;
65715;SDS011;63484;52.054;8.518;2023-04-06T07:35:19;10.68;;;6.40;;
65715;SDS011;63484;52.054;8.518;2023-04-06T07:40:21;11.43;;;6.10;;
65715;SDS011;63484;52.054;8.518;2023-04-06T07:45:25;8.82;;;5.95;;
65715;SDS011;63484;52.054;8.518;2023-04-06T07:50:28;11.27;;;6.63;;
65715;SDS011;63484;52.054;8.518;2023-04-06T08:00:34;8.68;;;6.03;;
65715;SDS011;63484;52.054;8.518;2023-04-06T08:05:36;7.20;;;5.75;;
65715;SDS011;63484;52.054;8.518;2023-04-06T08:10:39;7.78;;;5.80;;
65715;SDS011;63484;52.054;8.518;2023-04-06T08:15:43;7.00;;;5.90;;
65715;SDS011;63484;52.054;8.518;2023-04-06T08:20:45;9.02;;;5.90;;
65715;SDS011;63484;52.054;8.518;2023-04-06T08:25:46;8.52;;;6.30;;
65715;SDS011;63484;52.054;8.518;2023-04-06T08:30:50;10.82;;;6.65;;
65715;SDS011;63484;52.054;8.518;2023-04-06T08:40:53;12.27;;;6.90;;
65715;SDS011;63484;52.054;8.518;2023-04-06T08:45:56;10.52;;;6.63;;
65715;SDS011;63484;52.054;8.518;2023-04-06T08:50:59;10.15;;;6.40;;
65715;SDS011;63484;52.054;8.518;2023-04-06T08:56:01;11.60;;;6.32;;
65715;SDS011;63484;52.054;8.518;2023-04-06T09:01:07;11.02;;;6.30;;
65715;SDS011;63484;52.054;8.518;2023-04-06T09:06:10;11.68;;;6.20;;
65715;SDS011;63484;52.054;8.518;2023-04-06T09:11:14;12.27;;;6.53;;
65715;SDS011;63484;52.054;8.518;2023-04-06T09:16:17;10.43;;;6.03;;
65715;SDS011;63484;52.054;8.518;2023-04-06T09:21:20;10.13;;;6.18;;
65715;SDS011;63484;52.054;8.518;2023-04-06T09:26:21;14.95;;;6.57;;
65715;SDS011;63484;52.054;8.518;2023-04-06T09:31:26;15.45;;;7.70;;
65715;SDS011;63484;52.054;8.518;2023-04-06T09:36:31;11.50;;;6.43;;
65715;SDS011;63484;52.054;8.518;2023-04-06T09:41:35;10.73;;;6.30;;
65715;SDS011;63484;52.054;8.518;2023-04-06T09:46:39;11.38;;;5.75;;
65715;SDS011;63484;52.054;8.518;2023-04-06T09:51:45;12.00;;;6.10;;
65715;SDS011;63484;52.054;8.518;2023-04-06T09:56:51;14.30;;;6.53;;
65715;SDS011;63484;52.054;8.518;2023-04-06T10:01:59;13.70;;;7.32;;
65715;SDS011;63484;52.054;8.518;2023-04-06T10:07:01;15.57;;;6.78;;
65715;SDS011;63484;52.054;8.518;2023-04-06T10:12:04;11.40;;;6.70;;
65715;SDS011;63484;52.054;8.518;2023-04-06T10:17:10;15.85;;;7.18;;
65715;SDS011;63484;52.054;8.518;2023-04-06T10:22:15;11.57;;;6.75;;
65715;SDS011;63484;52.054;8.518;2023-04-06T10:27:37;15.27;;;7.30;;
65715;SDS011;63484;52.054;8.518;2023-04-06T10:32:41;15.60;;;7.20;;
65715;SDS011;63484;52.054;8.518;2023-04-06T10:37:46;21.20;;;8.10;;
65715;SDS011;63484;52.054;8.518;2023-04-06T10:42:49;13.77;;;6.65;;
65715;SDS011;63484;52.054;8.518;2023-04-06T10:47:53;13.63;;;7.25;;
65715;SDS011;63484;52.054;8.518;2023-04-06T10:52:58;15.45;;;7.68;;
65715;SDS011;63484;52.054;8.518;2023-04-06T10:58:01;11.00;;;6.38;;
65715;SDS011;63484;52.054;8.518;2023-04-06T11:08:08;14.93;;;8.32;;
65715;SDS011;63484;52.054;8.518;2023-04-06T11:13:11;15.10;;;6.97;;
65715;SDS011;63484;52.054;8.518;2023-04-06T11:18:16;13.88;;;8.23;;
65715;SDS011;63484;52.054;8.518;2023-04-06T11:23:22;15.50;;;7.40;;
65715;SDS011;63484;52.054;8.518;2023-04-06T11:28:25;13.60;;;7.30;;
65715;SDS011;63484;52.054;8.518;2023-04-06T11:33:28;12.15;;;7.43;;
65715;SDS011;63484;52.054;8.518;2023-04-06T11:38:30;16.42;;;7.93;;
65715;SDS011;63484;52.054;8.518;2023-04-06T11:43:32;18.05;;;8.35;;
65715;SDS011;63484;52.054;8.518;2023-04-06T11:48:44;13.55;;;7.85;;
65715;SDS011;63484;52.054;8.518;2023-04-06T11:53:47;16.05;;;7.88;;
65715;SDS011;63484;52.054;8.518;2023-04-06T11:58:49;16.08;;;8.27;;
65715;SDS011;63484;52.054;8.518;2023-04-06T12:03:52;22.13;;;8.57;;
65715;SDS011;63484;52.054;8.518;2023-04-06T12:08:54;15.77;;;8.23;;
65715;SDS011;63484;52.054;8.518;2023-04-06T12:13:56;16.20;;;7.80;;
65715;SDS011;63484;52.054;8.518;2023-04-06T12:19:00;17.17;;;8.65;;
65715;SDS011;63484;52.054;8.518;2023-04-06T12:24:03;12.57;;;7.07;;
65715;SDS011;63484;52.054;8.518;2023-04-06T12:29:05;17.25;;;7.60;;
65715;SDS011;63484;52.054;8.518;2023-04-06T12:34:09;11.98;;;6.60;;
65715;SDS011;63484;52.054;8.518;2023-04-06T12:44:13;10.65;;;5.90;;
65715;SDS011;63484;52.054;8.518;2023-04-06T12:49:16;15.05;;;6.13;;
65715;SDS011;63484;52.054;8.518;2023-04-06T12:59:23;12.13;;;5.90;;
65715;SDS011;63484;52.054;8.518;2023-04-06T13:04:27;12.00;;;6.45;;
65715;SDS011;63484;52.054;8.518;2023-04-06T13:09:28;12.07;;;6.50;;
65715;SDS011;63484;52.054;8.518;2023-04-06T13:14:30;10.88;;;6.07;;
65715;SDS011;63484;52.054;8.518;2023-04-06T13:19:33;13.77;;;6.95;;
65715;SDS011;63484;52.054;8.518;2023-04-06T13:24:35;11.90;;;6.07;;
65715;SDS011;63484;52.054;8.518;2023-04-06T13:29:37;16.52;;;7.63;;
65715;SDS011;63484;52.054;8.518;2023-04-06T13:34:41;13.50;;;6.53;;
65715;SDS011;63484;52.054;8.518;2023-04-06T13:39:47;12.73;;;6.07;;
65715;SDS011;63484;52.054;8.518;2023-04-06T13:44:48;14.32;;;6.88;;
65715;SDS011;63484;52.054;8.518;2023-04-06T13:49:52;11.77;;;6.70;;
65715;SDS011;63484;52.054;8.518;2023-04-06T13:54:55;12.48;;;6.80;;
65715;SDS011;63484;52.054;8.518;2023-04-06T13:59:57;12.43;;;6.90;;
65715;SDS011;63484;52.054;8.518;2023-04-06T14:05:00;12.25;;;6.72;;
65715;SDS011;63484;52.054;8.518;2023-04-06T14:10:02;12.98;;;7.25;;
65715;SDS011;63484;52.054;8.518;2023-04-06T14:15:05;14.63;;;7.90;;
65715;SDS011;63484;52.054;8.518;2023-04-06T14:20:12;15.65;;;8.23;;
65715;SDS011;63484;52.054;8.518;2023-04-06T14:25:15;15.88;;;8.13;;
65715;SDS011;63484;52.054;8.518;2023-04-06T14:30:17;16.15;;;8.50;;
65715;SDS011;63484;52.054;8.518;2023-04-06T14:35:20;15.35;;;7.65;;
65715;SDS011;63484;52.054;8.518;2023-04-06T14:40:22;18.77;;;8.50;;
65715;SDS011;63484;52.054;8.518;2023-04-06T14:45:23;16.38;;;8.50;;
65715;SDS011;63484;52.054;8.518;2023-04-06T14:50:29;18.17;;;8.52;;
65715;SDS011;63484;52.054;8.518;2023-04-06T14:55:30;21.33;;;10.03;;
65715;SDS011;63484;52.054;8.518;2023-04-06T15:00:32;17.38;;;8.75;;
65715;SDS011;63484;52.054;8.518;2023-04-06T15:05:35;15.98;;;8.15;;
65715;SDS011;63484;52.054;8.518;2023-04-06T15:10:37;21.00;;;9.30;;
65715;SDS011;63484;52.054;8.518;2023-04-06T15:15:40;18.17;;;8.98;;
65715;SDS011;63484;52.054;8.518;2023-04-06T15:20:43;16.48;;;8.70;;
65715;SDS011;63484;52.054;8.518;2023-04-06T15:25:45;23.38;;;9.32;;
65715;SDS011;63484;52.054;8.518;2023-04-06T15:30:46;17.17;;;8.82;;
65715;SDS011;63484;52.054;8.518;2023-04-06T15:35:50;22.70;;;10.10;;
65715;SDS011;63484;52.054;8.518;2023-04-06T15:40:51;17.77;;;9.40;;
65715;SDS011;63484;52.054;8.518;2023-04-06T15:45:53;19.45;;;9.30;;
65715;SDS011;63484;52.054;8.518;2023-04-06T15:50:57;19.10;;;9.15;;
65715;SDS011;63484;52.054;8.518;2023-04-06T15:55:59;18.10;;;8.87;;
65715;SDS011;63484;52.054;8.518;2023-04-06T16:01:09;15.40;;;7.85;;
65715;SDS011;63484;52.054;8.518;2023-04-06T16:06:13;17.05;;;7.28;;
65715;SDS011;63484;52.054;8.518;2023-04-06T16:11:15;17.95;;;8.50;;
65715;SDS011;63484;52.054;8.518;2023-04-06T16:16:17;16.70;;;7.97;;
65715;SDS011;63484;52.054;8.518;2023-04-06T16:21:23;15.82;;;8.05;;
65715;SDS011;63484;52.054;8.518;2023-04-06T16:26:27;16.95;;;7.95;;
65715;SDS011;63484;52.054;8.518;2023-04-06T16:31:28;18.50;;;7.43;;
65715;SDS011;63484;52.054;8.518;2023-04-06T16:36:33;16.83;;;7.50;;
65715;SDS011;63484;52.054;8.518;2023-04-06T16:41:35;15.13;;;7.50;;
65715;SDS011;63484;52.054;8.518;2023-04-06T16:46:37;13.75;;;6.75;;
65715;SDS011;63484;52.054;8.518;2023-04-06T16:51:40;17.73;;;6.95;;
65715;SDS011;63484;52.054;8.518;2023-04-06T16:56:42;14.95;;;6.57;;
65715;SDS011;63484;52.054;8.518;2023-04-06T17:01:46;12.38;;;6.22;;
65715;SDS011;63484;52.054;8.518;2023-04-06T17:06:49;13.65;;;6.57;;
65715;SDS011;63484;52.054;8.518;2023-04-06T17:11:53;14.85;;;6.90;;
65715;SDS011;63484;52.054;8.518;2023-04-06T17:16:55;14.45;;;7.38;;
65715;SDS011;63484;52.054;8.518;2023-04-06T17:21:58;14.75;;;6.95;;
65715;SDS011;63484;52.054;8.518;2023-04-06T17:27:00;13.63;;;6.93;;
65715;SDS011;63484;52.054;8.518;2023-04-06T17:32:02;13.88;;;6.97;;
65715;SDS011;63484;52.054;8.518;2023-04-06T17:37:09;16.08;;;7.65;;
65715;SDS011;63484;52.054;8.518;2023-04-06T17:42:11;16.00;;;8.18;;
65715;SDS011;63484;52.054;8.518;2023-04-06T17:47:13;14.98;;;7.50;;
65715;SDS011;63484;52.054;8.518;2023-04-06T17:52:16;15.73;;;8.10;;
65715;SDS011;63484;52.054;8.518;2023-04-06T17:57:18;13.80;;;8.10;;
65715;SDS011;63484;52.054;8.518;2023-04-06T18:02:22;13.68;;;7.50;;
65715;SDS011;63484;52.054;8.518;2023-04-06T18:07:25;13.55;;;7.85;;
65715;SDS011;63484;52.054;8.518;2023-04-06T18:12:27;18.83;;;7.43;;
65715;SDS011;63484;52.054;8.518;2023-04-06T18:17:29;13.10;;;7.32;;
65715;SDS011;63484;52.054;8.518;2023-04-06T18:22:32;17.05;;;7.80;;
65715;SDS011;63484;52.054;8.518;2023-04-06T18:27:35;13.38;;;7.35;;
65715;SDS011;63484;52.054;8.518;2023-04-06T18:32:37;14.50;;;7.63;;
65715;SDS011;63484;52.054;8.518;2023-04-06T18:37:41;14.73;;;7.68;;
65715;SDS011;63484;52.054;8.518;2023-04-06T18:42:43;13.50;;;7.30;;
65715;SDS011;63484;52.054;8.518;2023-04-06T18:47:44;13.00;;;7.00;;
65715;SDS011;63484;52.054;8.518;2023-04-06T18:52:50;13.75;;;7.63;;
65715;SDS011;63484;52.054;8.518;2023-04-06T18:57:52;14.10;;;6.43;;
65715;SDS011;63484;52.054;8.518;2023-04-06T19:02:53;15.60;;;6.85;;
65715;SDS011;63484;52.054;8.518;2023-04-06T19:07:59;13.52;;;6.57;;
65715;SDS011;63484;52.054;8.518;2023-04-06T19:13:01;12.20;;;6.90;;
65715;SDS011;63484;52.054;8.518;2023-04-06T19:18:02;12.55;;;6.57;;
65715;SDS011;63484;52.054;8.518;2023-04-06T19:23:06;13.07;;;6.63;;
65715;SDS011;63484;52.054;8.518;2023-04-06T19:28:08;15.60;;;7.13;;
65715;SDS011;63484;52.054;8.518;2023-04-06T19:33:10;11.45;;;7.10;;
65715;SDS011;63484;52.054;8.518;2023-04-06T19:38:14;15.27;;;7.30;;
65715;SDS011;63484;52.054;8.518;2023-04-06T19:43:15;14.07;;;7.83;;
65715;SDS011;63484;52.054;8.518;2023-04-06T19:48:19;13.82;;;7.70;;
65715;SDS011;63484;52.054;8.518;2023-04-06T19:53:22;17.02;;;8.68;;
65715;SDS011;63484;52.054;8.518;2023-04-06T19:58:24;17.07;;;8.37;;
65715;SDS011;63484;52.054;8.518;2023-04-06T20:03:26;15.45;;;8.27;;
65715;SDS011;63484;52.054;8.518;2023-04-06T20:08:29;11.70;;;7.13;;
65715;SDS011;63484;52.054;8.518;2023-04-06T20:13:31;16.93;;;7.30;;
65715;SDS011;63484;52.054;8.518;2023-04-06T20:18:33;16.05;;;6.95;;
65715;SDS011;63484;52.054;8.518;2023-04-06T20:23:36;13.02;;;7.35;;
65715;SDS011;63484;52.054;8.518;2023-04-06T20:28:38;10.10;;;6.30;;
65715;SDS011;63484;52.054;8.518;2023-04-06T20:33:42;14.52;;;7.18;;
65715;SDS011;63484;52.054;8.518;2023-04-06T20:38:45;12.70;;;7.03;;
65715;SDS011;63484;52.054;8.518;2023-04-06T20:43:47;15.77;;;7.53;;
65715;SDS011;63484;52.054;8.518;2023-04-06T20:48:51;15.35;;;7.13;;
65715;SDS011;63484;52.054;8.518;2023-04-06T20:53:55;12.82;;;6.95;;
65715;SDS011;63484;52.054;8.518;2023-04-06T20:58:56;13.60;;;6.22;;
65715;SDS011;63484;52.054;8.518;2023-04-06T21:03:58;12.40;;;6.35;;
65715;SDS011;63484;52.054;8.518;2023-04-06T21:09:03;13.98;;;7.22;;
65715;SDS011;63484;52.054;8.518;2023-04-06T21:14:05;13.67;;;7.23;;
65715;SDS011;63484;52.054;8.518;2023-04-06T21:19:07;12.30;;;6.47;;
65715;SDS011;63484;52.054;8.518;2023-04-06T21:24:10;14.55;;;7.53;;
65715;SDS011;63484;52.054;8.518;2023-04-06T21:29:14;14.40;;;7.03;;
65715;SDS011;63484;52.054;8.518;2023-04-06T21:34:16;15.85;;;8.10;;
65715;SDS011;63484;52.054;8.518;2023-04-06T21:39:19;14.18;;;7.70;;
65715;SDS011;63484;52.054;8.518;2023-04-06T21:44:23;14.65;;;8.23;;
65715;SDS011;63484;52.054;8.518;2023-04-06T21:49:24;13.98;;;7.88;;
65715;SDS011;63484;52.054;8.518;2023-04-06T21:54:31;16.52;;;8.68;;
65715;SDS011;63484;52.054;8.518;2023-04-06T21:59:33;14.32;;;8.30;;
65715;SDS011;63484;52.054;8.518;2023-04-06T22:04:35;15.48;;;8.00;;
65715;SDS011;63484;52.054;8.518;2023-04-06T22:09:38;18.40;;;8.60;;
65715;SDS011;63484;52.054;8.518;2023-04-06T22:14:40;18.08;;;9.27;;
65715;SDS011;63484;52.054;8.518;2023-04-06T22:19:42;17.33;;;8.95;;
65715;SDS011;63484;52.054;8.518;2023-04-06T22:24:45;16.75;;;8.43;;
65715;SDS011;63484;52.054;8.518;2023-04-06T22:29:47;16.40;;;8.73;;
65715;SDS011;63484;52.054;8.518;2023-04-06T22:34:48;15.85;;;8.77;;
65715;SDS011;63484;52.054;8.518;2023-04-06T22:39:51;17.00;;;8.90;;
65715;SDS011;63484;52.054;8.518;2023-04-06T22:44:53;18.13;;;9.10;;
65715;SDS011;63484;52.054;8.518;2023-04-06T22:49:55;16.92;;;8.90;;
65715;SDS011;63484;52.054;8.518;2023-04-06T22:54:58;15.93;;;8.70;;
65715;SDS011;63484;52.054;8.518;2023-04-06T23:00:02;14.55;;;8.20;;
65715;SDS011;63484;52.054;8.518;2023-04-06T23:05:05;15.43;;;8.60;;
65715;SDS011;63484;52.054;8.518;2023-04-06T23:10:11;13.88;;;7.80;;
65715;SDS011;63484;52.054;8.518;2023-04-06T23:15:13;15.98;;;8.38;;
65715;SDS011;63484;52.054;8.518;2023-04-06T23:20:15;14.25;;;7.47;;
65715;SDS011;63484;52.054;8.518;2023-04-06T23:25:21;14.85;;;8.02;;
65715;SDS011;63484;52.054;8.518;2023-04-06T23:30:22;15.60;;;8.30;;
65715;SDS011;63484;52.054;8.518;2023-04-06T23:35:24;16.45;;;7.50;;
65715;SDS011;63484;52.054;8.518;2023-04-06T23:40:27;16.23;;;7.97;;
65715;SDS011;63484;52.054;8.518;2023-04-06T23:45:31;13.93;;;7.13;;
65715;SDS011;63484;52.054;8.518;2023-04-06T23:50:33;11.75;;;6.70;;
65715;SDS011;63484;52.054;8.518;2023-04-06T23:55:36;13.32;;;7.53;;
